sensor_id;sensor_type;location;lat;lon;timestamp;P1;P2;P0
55485;PMS5003;71262;-25.924;28.194;2023-08-21T00:00:00;12;12;
55485;PMS5003;71262;-25.924;28.194;2023-08-21T00:02:26;15;14;
55485;PMS5003;71262;-25.924;28.194;2023-08-21T00:04:51;15;15;
55485;PMS5003;71262;-25.924;28.194;2023-08-21T00:07:17;15;14;
55485;PMS5003;71262;-25.924;28.194;2023-08-21T00:09:42;13;12;
55485;PMS5003;71262;-25.924;28.194;2023-08-21T00:12:07;13;13;
55485;PMS5003;71262;-25.924;28.194;2023-08-21T00:14:33;15;13;
55485;PMS5003;71262;-25.924;28.194;2023-08-21T00:16:58;11;9;
55485;PMS5003;71262;-25.924;28.194;2023-08-21T00:19:23;13;12;
55485;PMS5003;71262;-25.924;28.194;2023-08-21T00:21:49;16;15;
55485;PMS5003;71262;-25.924;28.194;2023-08-21T00:24:14;14;11;
55485;PMS5003;71262;-25.924;28.194;2023-08-21T00:26:39;10;9;
55485;PMS5003;71262;-25.924;28.194;2023-08-21T00:29:05;12;11;
55485;PMS5003;71262;-25.924;28.194;2023-08-21T00:31:30;11;10;
55485;PMS5003;71262;-25.924;28.194;2023-08-21T00:33:55;17;15;
55485;PMS5003;71262;-25.924;28.194;2023-08-21T00:36:21;9;9;
55485;PMS5003;71262;-25.924;28.194;2023-08-21T00:38:45;14;11;
55485;PMS5003;71262;-25.924;28.194;2023-08-21T00:41:11;12;12;
55485;PMS5003;71262;-25.924;28.194;2023-08-21T00:43:36;11;11;
55485;PMS5003;71262;-25.924;28.194;2023-08-21T00:46:01;12;12;
55485;PMS5003;71262;-25.924;28.194;2023-08-21T00:48:26;13;12;
55485;PMS5003;71262;-25.924;28.194;2023-08-21T00:50:52;10;10;
55485;PMS5003;71262;-25.924;28.194;2023-08-21T00:53:17;10;9;
55485;PMS5003;71262;-25.924;28.194;2023-08-21T00:55:42;15;11;
55485;PMS5003;71262;-25.924;28.194;2023-08-21T00:58:08;12;10;
55485;PMS5003;71262;-25.924;28.194;2023-08-21T01:00:33;13;11;
55485;PMS5003;71262;-25.924;28.194;2023-08-21T01:02:58;14;13;
55485;PMS5003;71262;-25.924;28.194;2023-08-21T01:05:23;10;10;
55485;PMS5003;71262;-25.924;28.194;2023-08-21T01:07:49;15;12;
55485;PMS5003;71262;-25.924;28.194;2023-08-21T01:10:15;12;12;
55485;PMS5003;71262;-25.924;28.194;2023-08-21T01:12:41;14;9;
55485;PMS5003;71262;-25.924;28.194;2023-08-21T01:15:05;11;10;
55485;PMS5003;71262;-25.924;28.194;2023-08-21T01:17:30;9;8;
55485;PMS5003;71262;-25.924;28.194;2023-08-21T01:19:55;10;9;
55485;PMS5003;71262;-25.924;28.194;2023-08-21T01:22:23;12;10;
55485;PMS5003;71262;-25.924;28.194;2023-08-21T01:24:46;10;8;
55485;PMS5003;71262;-25.924;28.194;2023-08-21T01:27:12;17;11;
55485;PMS5003;71262;-25.924;28.194;2023-08-21T01:29:37;11;10;
55485;PMS5003;71262;-25.924;28.194;2023-08-21T01:32:04;12;12;
55485;PMS5003;71262;-25.924;28.194;2023-08-21T01:34:28;11;11;
55485;PMS5003;71262;-25.924;28.194;2023-08-21T01:36:54;11;10;
55485;PMS5003;71262;-25.924;28.194;2023-08-21T01:39:18;13;12;
55485;PMS5003;71262;-25.924;28.194;2023-08-21T01:41:43;10;9;
55485;PMS5003;71262;-25.924;28.194;2023-08-21T01:44:09;11;11;
55485;PMS5003;71262;-25.924;28.194;2023-08-21T01:46:34;12;11;
55485;PMS5003;71262;-25.924;28.194;2023-08-21T01:48:59;12;11;
55485;PMS5003;71262;-25.924;28.194;2023-08-21T01:51:24;10;8;
55485;PMS5003;71262;-25.924;28.194;2023-08-21T01:53:49;12;11;
55485;PMS5003;71262;-25.924;28.194;2023-08-21T01:56:14;10;9;
55485;PMS5003;71262;-25.924;28.194;2023-08-21T01:58:39;11;11;
55485;PMS5003;71262;-25.924;28.194;2023-08-21T02:01:05;15;11;
55485;PMS5003;71262;-25.924;28.194;2023-08-21T02:03:30;9;9;
55485;PMS5003;71262;-25.924;28.194;2023-08-21T02:05:55;11;11;
55485;PMS5003;71262;-25.924;28.194;2023-08-21T02:08:20;13;11;
55485;PMS5003;71262;-25.924;28.194;2023-08-21T02:10:48;10;10;
55485;PMS5003;71262;-25.924;28.194;2023-08-21T02:13:11;10;10;
55485;PMS5003;71262;-25.924;28.194;2023-08-21T02:15:36;13;12;
55485;PMS5003;71262;-25.924;28.194;2023-08-21T02:18:02;13;12;
55485;PMS5003;71262;-25.924;28.194;2023-08-21T02:20:27;11;10;
55485;PMS5003;71262;-25.924;28.194;2023-08-21T02:22:52;11;11;
55485;PMS5003;71262;-25.924;28.194;2023-08-21T02:25:17;10;9;
55485;PMS5003;71262;-25.924;28.194;2023-08-21T02:27:42;8;8;
55485;PMS5003;71262;-25.924;28.194;2023-08-21T02:30:08;12;9;
55485;PMS5003;71262;-25.924;28.194;2023-08-21T02:32:33;9;9;
55485;PMS5003;71262;-25.924;28.194;2023-08-21T02:34:58;10;10;
55485;PMS5003;71262;-25.924;28.194;2023-08-21T02:37:23;13;11;
55485;PMS5003;71262;-25.924;28.194;2023-08-21T02:39:48;13;12;
55485;PMS5003;71262;-25.924;28.194;2023-08-21T02:42:13;13;11;
55485;PMS5003;71262;-25.924;28.194;2023-08-21T02:44:38;10;10;
55485;PMS5003;71262;-25.924;28.194;2023-08-21T02:47:03;11;10;
55485;PMS5003;71262;-25.924;28.194;2023-08-21T02:49:28;10;10;
55485;PMS5003;71262;-25.924;28.194;2023-08-21T02:51:54;13;12;
55485;PMS5003;71262;-25.924;28.194;2023-08-21T02:54:19;11;11;
55485;PMS5003;71262;-25.924;28.194;2023-08-21T02:56:44;10;10;
55485;PMS5003;71262;-25.924;28.194;2023-08-21T02:59:09;15;10;
55485;PMS5003;71262;-25.924;28.194;2023-08-21T03:01:35;19;14;
55485;PMS5003;71262;-25.924;28.194;2023-08-21T03:04:00;12;12;
55485;PMS5003;71262;-25.924;28.194;2023-08-21T03:06:25;17;12;
55485;PMS5003;71262;-25.924;28.194;2023-08-21T03:08:51;12;12;
55485;PMS5003;71262;-25.924;28.194;2023-08-21T03:11:16;14;12;
55485;PMS5003;71262;-25.924;28.194;2023-08-21T03:13:41;10;10;
55485;PMS5003;71262;-25.924;28.194;2023-08-21T03:16:06;12;11;
55485;PMS5003;71262;-25.924;28.194;2023-08-21T03:18:31;11;10;
55485;PMS5003;71262;-25.924;28.194;2023-08-21T03:20:56;10;10;
55485;PMS5003;71262;-25.924;28.194;2023-08-21T03:23:21;11;10;
55485;PMS5003;71262;-25.924;28.194;2023-08-21T03:25:46;10;9;
55485;PMS5003;71262;-25.924;28.194;2023-08-21T03:28:11;10;10;
55485;PMS5003;71262;-25.924;28.194;2023-08-21T03:30:39;12;12;
55485;PMS5003;71262;-25.924;28.194;2023-08-21T03:33:02;11;11;
55485;PMS5003;71262;-25.924;28.194;2023-08-21T03:35:27;11;10;
55485;PMS5003;71262;-25.924;28.194;2023-08-21T03:37:52;11;10;
55485;PMS5003;71262;-25.924;28.194;2023-08-21T03:40:17;11;10;
55485;PMS5003;71262;-25.924;28.194;2023-08-21T03:42:42;12;10;
55485;PMS5003;71262;-25.924;28.194;2023-08-21T03:45:08;10;9;
55485;PMS5003;71262;-25.924;28.194;2023-08-21T03:47:32;12;10;
55485;PMS5003;71262;-25.924;28.194;2023-08-21T03:49:57;12;12;
55485;PMS5003;71262;-25.924;28.194;2023-08-21T03:52:23;12;11;
55485;PMS5003;71262;-25.924;28.194;2023-08-21T03:54:48;11;11;
55485;PMS5003;71262;-25.924;28.194;2023-08-21T03:57:13;10;9;
55485;PMS5003;71262;-25.924;28.194;2023-08-21T03:59:38;14;12;
55485;PMS5003;71262;-25.924;28.194;2023-08-21T04:02:03;9;9;
55485;PMS5003;71262;-25.924;28.194;2023-08-21T04:04:28;9;8;
55485;PMS5003;71262;-25.924;28.194;2023-08-21T04:06:53;10;9;
55485;PMS5003;71262;-25.924;28.194;2023-08-21T04:09:19;11;11;
55485;PMS5003;71262;-25.924;28.194;2023-08-21T04:11:44;10;9;
55485;PMS5003;71262;-25.924;28.194;2023-08-21T04:14:09;10;10;
55485;PMS5003;71262;-25.924;28.194;2023-08-21T04:16:35;10;9;
55485;PMS5003;71262;-25.924;28.194;2023-08-21T04:19:00;9;9;
55485;PMS5003;71262;-25.924;28.194;2023-08-21T04:21:25;10;9;
55485;PMS5003;71262;-25.924;28.194;2023-08-21T04:23:50;12;11;
55485;PMS5003;71262;-25.924;28.194;2023-08-21T04:26:16;11;10;
55485;PMS5003;71262;-25.924;28.194;2023-08-21T04:28:41;12;9;
55485;PMS5003;71262;-25.924;28.194;2023-08-21T04:31:06;10;10;
55485;PMS5003;71262;-25.924;28.194;2023-08-21T04:33:31;11;11;
55485;PMS5003;71262;-25.924;28.194;2023-08-21T04:35:57;13;9;
55485;PMS5003;71262;-25.924;28.194;2023-08-21T04:38:22;9;9;
55485;PMS5003;71262;-25.924;28.194;2023-08-21T04:40:47;9;8;
55485;PMS5003;71262;-25.924;28.194;2023-08-21T04:43:13;11;10;
55485;PMS5003;71262;-25.924;28.194;2023-08-21T04:45:38;9;8;
55485;PMS5003;71262;-25.924;28.194;2023-08-21T04:48:03;9;9;
55485;PMS5003;71262;-25.924;28.194;2023-08-21T04:50:28;10;9;
55485;PMS5003;71262;-25.924;28.194;2023-08-21T04:52:55;7;7;
55485;PMS5003;71262;-25.924;28.194;2023-08-21T04:55:19;24;20;
55485;PMS5003;71262;-25.924;28.194;2023-08-21T04:57:44;12;12;
55485;PMS5003;71262;-25.924;28.194;2023-08-21T05:00:10;14;12;
55485;PMS5003;71262;-25.924;28.194;2023-08-21T05:02:35;30;27;
55485;PMS5003;71262;-25.924;28.194;2023-08-21T05:05:01;12;10;
55485;PMS5003;71262;-25.924;28.194;2023-08-21T05:07:26;11;9;
55485;PMS5003;71262;-25.924;28.194;2023-08-21T05:09:52;18;16;
55485;PMS5003;71262;-25.924;28.194;2023-08-21T05:12:17;16;14;
55485;PMS5003;71262;-25.924;28.194;2023-08-21T05:14:43;27;20;
55485;PMS5003;71262;-25.924;28.194;2023-08-21T05:17:08;22;21;
55485;PMS5003;71262;-25.924;28.194;2023-08-21T05:19:33;14;10;
55485;PMS5003;71262;-25.924;28.194;2023-08-21T05:21:58;11;11;
55485;PMS5003;71262;-25.924;28.194;2023-08-21T05:24:23;11;10;
55485;PMS5003;71262;-25.924;28.194;2023-08-21T05:26:49;11;10;
55485;PMS5003;71262;-25.924;28.194;2023-08-21T05:29:14;10;9;
55485;PMS5003;71262;-25.924;28.194;2023-08-21T05:31:40;34;28;
55485;PMS5003;71262;-25.924;28.194;2023-08-21T05:34:05;22;18;
55485;PMS5003;71262;-25.924;28.194;2023-08-21T05:36:30;15;14;
55485;PMS5003;71262;-25.924;28.194;2023-08-21T05:38:56;11;10;
55485;PMS5003;71262;-25.924;28.194;2023-08-21T05:41:21;12;12;
55485;PMS5003;71262;-25.924;28.194;2023-08-21T05:43:46;13;13;
55485;PMS5003;71262;-25.924;28.194;2023-08-21T05:46:12;16;15;
55485;PMS5003;71262;-25.924;28.194;2023-08-21T05:48:36;13;12;
55485;PMS5003;71262;-25.924;28.194;2023-08-21T05:51:02;48;34;
55485;PMS5003;71262;-25.924;28.194;2023-08-21T05:53:27;11;11;
55485;PMS5003;71262;-25.924;28.194;2023-08-21T05:55:53;16;10;
55485;PMS5003;71262;-25.924;28.194;2023-08-21T05:58:17;10;10;
55485;PMS5003;71262;-25.924;28.194;2023-08-21T06:00:43;8;7;
55485;PMS5003;71262;-25.924;28.194;2023-08-21T06:03:08;12;10;
55485;PMS5003;71262;-25.924;28.194;2023-08-21T06:05:33;12;10;
55485;PMS5003;71262;-25.924;28.194;2023-08-21T06:07:58;10;9;
55485;PMS5003;71262;-25.924;28.194;2023-08-21T06:10:23;12;12;
55485;PMS5003;71262;-25.924;28.194;2023-08-21T06:12:48;12;10;
55485;PMS5003;71262;-25.924;28.194;2023-08-21T06:15:14;9;8;
55485;PMS5003;71262;-25.924;28.194;2023-08-21T06:17:39;8;7;
55485;PMS5003;71262;-25.924;28.194;2023-08-21T06:20:04;8;7;
55485;PMS5003;71262;-25.924;28.194;2023-08-21T06:22:30;11;8;
55485;PMS5003;71262;-25.924;28.194;2023-08-21T06:24:54;6;5;
55485;PMS5003;71262;-25.924;28.194;2023-08-21T06:27:19;9;9;
55485;PMS5003;71262;-25.924;28.194;2023-08-21T06:29:44;6;6;
55485;PMS5003;71262;-25.924;28.194;2023-08-21T06:32:09;7;7;
55485;PMS5003;71262;-25.924;28.194;2023-08-21T06:34:34;8;8;
55485;PMS5003;71262;-25.924;28.194;2023-08-21T06:36:59;16;13;
55485;PMS5003;71262;-25.924;28.194;2023-08-21T06:39:25;14;14;
55485;PMS5003;71262;-25.924;28.194;2023-08-21T06:41:50;19;17;
55485;PMS5003;71262;-25.924;28.194;2023-08-21T06:44:15;23;20;
55485;PMS5003;71262;-25.924;28.194;2023-08-21T06:46:41;26;16;
55485;PMS5003;71262;-25.924;28.194;2023-08-21T06:49:05;17;13;
55485;PMS5003;71262;-25.924;28.194;2023-08-21T06:51:30;14;11;
55485;PMS5003;71262;-25.924;28.194;2023-08-21T06:53:57;15;11;
55485;PMS5003;71262;-25.924;28.194;2023-08-21T06:56:22;18;11;
55485;PMS5003;71262;-25.924;28.194;2023-08-21T06:58:47;9;9;
55485;PMS5003;71262;-25.924;28.194;2023-08-21T07:01:12;13;11;
55485;PMS5003;71262;-25.924;28.194;2023-08-21T07:03:37;16;11;
55485;PMS5003;71262;-25.924;28.194;2023-08-21T07:06:02;7;7;
55485;PMS5003;71262;-25.924;28.194;2023-08-21T07:08:28;8;8;
55485;PMS5003;71262;-25.924;28.194;2023-08-21T07:10:53;9;9;
55485;PMS5003;71262;-25.924;28.194;2023-08-21T07:13:18;9;9;
55485;PMS5003;71262;-25.924;28.194;2023-08-21T07:15:43;8;8;
55485;PMS5003;71262;-25.924;28.194;2023-08-21T07:18:08;10;7;
55485;PMS5003;71262;-25.924;28.194;2023-08-21T07:20:33;8;7;
55485;PMS5003;71262;-25.924;28.194;2023-08-21T07:22:58;12;12;
55485;PMS5003;71262;-25.924;28.194;2023-08-21T07:25:23;8;7;
55485;PMS5003;71262;-25.924;28.194;2023-08-21T07:27:48;9;9;
55485;PMS5003;71262;-25.924;28.194;2023-08-21T07:30:15;11;10;
55485;PMS5003;71262;-25.924;28.194;2023-08-21T07:32:38;9;8;
55485;PMS5003;71262;-25.924;28.194;2023-08-21T07:35:04;10;9;
55485;PMS5003;71262;-25.924;28.194;2023-08-21T07:37:29;9;9;
55485;PMS5003;71262;-25.924;28.194;2023-08-21T07:39:54;9;9;
55485;PMS5003;71262;-25.924;28.194;2023-08-21T07:42:19;12;11;
55485;PMS5003;71262;-25.924;28.194;2023-08-21T07:44:44;10;9;
55485;PMS5003;71262;-25.924;28.194;2023-08-21T07:47:09;8;7;
55485;PMS5003;71262;-25.924;28.194;2023-08-21T07:49:34;8;8;
55485;PMS5003;71262;-25.924;28.194;2023-08-21T07:51:59;8;8;
55485;PMS5003;71262;-25.924;28.194;2023-08-21T07:54:24;10;9;
55485;PMS5003;71262;-25.924;28.194;2023-08-21T07:56:50;12;9;
55485;PMS5003;71262;-25.924;28.194;2023-08-21T07:59:14;8;8;
55485;PMS5003;71262;-25.924;28.194;2023-08-21T08:01:39;7;7;
55485;PMS5003;71262;-25.924;28.194;2023-08-21T08:04:04;10;10;
55485;PMS5003;71262;-25.924;28.194;2023-08-21T08:06:29;10;9;
55485;PMS5003;71262;-25.924;28.194;2023-08-21T08:08:54;10;8;
55485;PMS5003;71262;-25.924;28.194;2023-08-21T08:11:19;11;8;
55485;PMS5003;71262;-25.924;28.194;2023-08-21T08:13:44;10;9;
55485;PMS5003;71262;-25.924;28.194;2023-08-21T08:16:09;8;7;
55485;PMS5003;71262;-25.924;28.194;2023-08-21T08:18:35;20;18;
55485;PMS5003;71262;-25.924;28.194;2023-08-21T08:21:00;9;8;
55485;PMS5003;71262;-25.924;28.194;2023-08-21T08:23:25;8;7;
55485;PMS5003;71262;-25.924;28.194;2023-08-21T08:25:50;9;9;
55485;PMS5003;71262;-25.924;28.194;2023-08-21T08:28:15;5;5;
55485;PMS5003;71262;-25.924;28.194;2023-08-21T08:30:40;9;8;
55485;PMS5003;71262;-25.924;28.194;2023-08-21T08:33:05;6;5;
55485;PMS5003;71262;-25.924;28.194;2023-08-21T08:35:30;8;7;
55485;PMS5003;71262;-25.924;28.194;2023-08-21T08:37:55;8;7;
55485;PMS5003;71262;-25.924;28.194;2023-08-21T08:40:21;8;7;
55485;PMS5003;71262;-25.924;28.194;2023-08-21T08:42:45;11;7;
55485;PMS5003;71262;-25.924;28.194;2023-08-21T08:45:12;5;5;
55485;PMS5003;71262;-25.924;28.194;2023-08-21T08:47:36;9;9;
55485;PMS5003;71262;-25.924;28.194;2023-08-21T08:50:02;8;7;
55485;PMS5003;71262;-25.924;28.194;2023-08-21T08:52:25;8;8;
55485;PMS5003;71262;-25.924;28.194;2023-08-21T08:54:50;7;7;
55485;PMS5003;71262;-25.924;28.194;2023-08-21T08:57:15;7;6;
55485;PMS5003;71262;-25.924;28.194;2023-08-21T08:59:41;7;6;
55485;PMS5003;71262;-25.924;28.194;2023-08-21T09:02:05;6;6;
55485;PMS5003;71262;-25.924;28.194;2023-08-21T09:04:31;5;4;
55485;PMS5003;71262;-25.924;28.194;2023-08-21T09:09:21;7;7;
55485;PMS5003;71262;-25.924;28.194;2023-08-21T09:11:46;6;6;
55485;PMS5003;71262;-25.924;28.194;2023-08-21T09:14:11;6;6;
55485;PMS5003;71262;-25.924;28.194;2023-08-21T09:16:37;7;6;
55485;PMS5003;71262;-25.924;28.194;2023-08-21T09:19:02;5;5;
55485;PMS5003;71262;-25.924;28.194;2023-08-21T09:21:28;4;3;
55485;PMS5003;71262;-25.924;28.194;2023-08-21T09:23:56;5;5;
55485;PMS5003;71262;-25.924;28.194;2023-08-21T09:26:19;4;4;
55485;PMS5003;71262;-25.924;28.194;2023-08-21T09:28:42;7;7;
55485;PMS5003;71262;-25.924;28.194;2023-08-21T09:31:08;4;4;
55485;PMS5003;71262;-25.924;28.194;2023-08-21T09:33:32;5;4;
55485;PMS5003;71262;-25.924;28.194;2023-08-21T09:35:57;4;4;
55485;PMS5003;71262;-25.924;28.194;2023-08-21T09:38:22;6;5;
55485;PMS5003;71262;-25.924;28.194;2023-08-21T09:40:50;6;6;
55485;PMS5003;71262;-25.924;28.194;2023-08-21T09:43:14;7;6;
55485;PMS5003;71262;-25.924;28.194;2023-08-21T09:45:38;4;4;
55485;PMS5003;71262;-25.924;28.194;2023-08-21T09:48:03;4;4;
55485;PMS5003;71262;-25.924;28.194;2023-08-21T09:50:29;4;4;
55485;PMS5003;71262;-25.924;28.194;2023-08-21T09:52:52;5;5;
55485;PMS5003;71262;-25.924;28.194;2023-08-21T09:55:18;4;4;
55485;PMS5003;71262;-25.924;28.194;2023-08-21T09:57:42;5;4;
55485;PMS5003;71262;-25.924;28.194;2023-08-21T10:00:08;5;4;
55485;PMS5003;71262;-25.924;28.194;2023-08-21T10:02:33;3;3;
55485;PMS5003;71262;-25.924;28.194;2023-08-21T10:04:58;4;4;
55485;PMS5003;71262;-25.924;28.194;2023-08-21T10:07:23;6;5;
55485;PMS5003;71262;-25.924;28.194;2023-08-21T10:09:48;4;4;
55485;PMS5003;71262;-25.924;28.194;2023-08-21T10:12:13;6;5;
55485;PMS5003;71262;-25.924;28.194;2023-08-21T10:14:38;4;4;
55485;PMS5003;71262;-25.924;28.194;2023-08-21T10:17:03;5;4;
55485;PMS5003;71262;-25.924;28.194;2023-08-21T10:19:31;6;5;
55485;PMS5003;71262;-25.924;28.194;2023-08-21T10:21:55;4;4;
55485;PMS5003;71262;-25.924;28.194;2023-08-21T10:26:43;5;4;
55485;PMS5003;71262;-25.924;28.194;2023-08-21T10:29:08;5;4;
55485;PMS5003;71262;-25.924;28.194;2023-08-21T10:31:34;4;4;
55485;PMS5003;71262;-25.924;28.194;2023-08-21T10:33:58;4;4;
55485;PMS5003;71262;-25.924;28.194;2023-08-21T10:41:13;5;4;
55485;PMS5003;71262;-25.924;28.194;2023-08-21T10:43:39;5;4;
55485;PMS5003;71262;-25.924;28.194;2023-08-21T10:46:03;4;4;
55485;PMS5003;71262;-25.924;28.194;2023-08-21T10:48:28;4;4;
55485;PMS5003;71262;-25.924;28.194;2023-08-21T10:50:53;5;4;
55485;PMS5003;71262;-25.924;28.194;2023-08-21T10:53:18;4;4;
55485;PMS5003;71262;-25.924;28.194;2023-08-21T10:55:43;5;5;
55485;PMS5003;71262;-25.924;28.194;2023-08-21T10:58:09;5;5;
55485;PMS5003;71262;-25.924;28.194;2023-08-21T11:00:33;7;6;
55485;PMS5003;71262;-25.924;28.194;2023-08-21T11:02:59;5;5;
55485;PMS5003;71262;-25.924;28.194;2023-08-21T11:05:24;4;4;
55485;PMS5003;71262;-25.924;28.194;2023-08-21T11:07:49;4;4;
55485;PMS5003;71262;-25.924;28.194;2023-08-21T11:10:14;4;4;
55485;PMS5003;71262;-25.924;28.194;2023-08-21T11:12:39;4;4;
55485;PMS5003;71262;-25.924;28.194;2023-08-21T11:15:04;6;6;
55485;PMS5003;71262;-25.924;28.194;2023-08-21T11:17:29;5;5;
55485;PMS5003;71262;-25.924;28.194;2023-08-21T11:19:54;6;6;
55485;PMS5003;71262;-25.924;28.194;2023-08-21T11:22:19;5;5;
55485;PMS5003;71262;-25.924;28.194;2023-08-21T11:24:45;4;4;
55485;PMS5003;71262;-25.924;28.194;2023-08-21T11:27:09;4;4;
55485;PMS5003;71262;-25.924;28.194;2023-08-21T11:29:36;5;5;
55485;PMS5003;71262;-25.924;28.194;2023-08-21T11:31:59;6;5;
55485;PMS5003;71262;-25.924;28.194;2023-08-21T11:34:24;5;5;
55485;PMS5003;71262;-25.924;28.194;2023-08-21T11:36:50;6;5;
55485;PMS5003;71262;-25.924;28.194;2023-08-21T11:39:14;5;4;
55485;PMS5003;71262;-25.924;28.194;2023-08-21T11:44:04;4;3;
55485;PMS5003;71262;-25.924;28.194;2023-08-21T11:46:29;4;4;
55485;PMS5003;71262;-25.924;28.194;2023-08-21T11:48:55;4;4;
55485;PMS5003;71262;-25.924;28.194;2023-08-21T11:51:19;6;4;
55485;PMS5003;71262;-25.924;28.194;2023-08-21T11:53:45;4;4;
55485;PMS5003;71262;-25.924;28.194;2023-08-21T11:56:11;6;5;
55485;PMS5003;71262;-25.924;28.194;2023-08-21T11:58:37;5;5;
55485;PMS5003;71262;-25.924;28.194;2023-08-21T12:01:03;5;4;
55485;PMS5003;71262;-25.924;28.194;2023-08-21T12:03:25;3;3;
55485;PMS5003;71262;-25.924;28.194;2023-08-21T12:05:50;4;4;
55485;PMS5003;71262;-25.924;28.194;2023-08-21T12:08:15;3;3;
55485;PMS5003;71262;-25.924;28.194;2023-08-21T12:10:40;5;5;
55485;PMS5003;71262;-25.924;28.194;2023-08-21T12:13:05;3;3;
55485;PMS5003;71262;-25.924;28.194;2023-08-21T12:15:30;6;4;
55485;PMS5003;71262;-25.924;28.194;2023-08-21T12:17:55;6;5;
55485;PMS5003;71262;-25.924;28.194;2023-08-21T12:20:20;4;4;
55485;PMS5003;71262;-25.924;28.194;2023-08-21T12:22:45;3;3;
55485;PMS5003;71262;-25.924;28.194;2023-08-21T12:25:10;4;4;
55485;PMS5003;71262;-25.924;28.194;2023-08-21T12:27:36;3;3;
55485;PMS5003;71262;-25.924;28.194;2023-08-21T12:30:00;2;2;
55485;PMS5003;71262;-25.924;28.194;2023-08-21T12:32:25;5;4;
55485;PMS5003;71262;-25.924;28.194;2023-08-21T12:34:51;3;2;
55485;PMS5003;71262;-25.924;28.194;2023-08-21T12:37:16;4;4;
55485;PMS5003;71262;-25.924;28.194;2023-08-21T12:39:41;5;5;
55485;PMS5003;71262;-25.924;28.194;2023-08-21T12:42:06;5;4;
55485;PMS5003;71262;-25.924;28.194;2023-08-21T12:44:31;5;4;
55485;PMS5003;71262;-25.924;28.194;2023-08-21T12:46:56;4;3;
55485;PMS5003;71262;-25.924;28.194;2023-08-21T12:49:21;4;4;
55485;PMS5003;71262;-25.924;28.194;2023-08-21T12:51:46;5;4;
55485;PMS5003;71262;-25.924;28.194;2023-08-21T12:54:11;2;2;
55485;PMS5003;71262;-25.924;28.194;2023-08-21T12:56:36;4;3;
55485;PMS5003;71262;-25.924;28.194;2023-08-21T12:59:01;5;5;
55485;PMS5003;71262;-25.924;28.194;2023-08-21T13:01:26;3;2;
55485;PMS5003;71262;-25.924;28.194;2023-08-21T13:03:51;3;3;
55485;PMS5003;71262;-25.924;28.194;2023-08-21T13:06:16;2;2;
55485;PMS5003;71262;-25.924;28.194;2023-08-21T13:08:41;3;3;
55485;PMS5003;71262;-25.924;28.194;2023-08-21T13:11:07;6;4;
55485;PMS5003;71262;-25.924;28.194;2023-08-21T13:13:31;4;4;
55485;PMS5003;71262;-25.924;28.194;2023-08-21T13:15:57;4;3;
55485;PMS5003;71262;-25.924;28.194;2023-08-21T13:18:22;3;3;
55485;PMS5003;71262;-25.924;28.194;2023-08-21T13:20:47;4;4;
55485;PMS5003;71262;-25.924;28.194;2023-08-21T13:23:12;3;2;
55485;PMS5003;71262;-25.924;28.194;2023-08-21T13:25:37;4;4;
55485;PMS5003;71262;-25.924;28.194;2023-08-21T13:28:02;3;3;
55485;PMS5003;71262;-25.924;28.194;2023-08-21T13:30:27;3;3;
55485;PMS5003;71262;-25.924;28.194;2023-08-21T13:32:53;4;4;
55485;PMS5003;71262;-25.924;28.194;2023-08-21T13:35:17;3;3;
55485;PMS5003;71262;-25.924;28.194;2023-08-21T13:37:42;3;3;
55485;PMS5003;71262;-25.924;28.194;2023-08-21T13:40:07;4;4;
55485;PMS5003;71262;-25.924;28.194;2023-08-21T13:42:32;3;2;
55485;PMS5003;71262;-25.924;28.194;2023-08-21T13:44:57;3;2;
55485;PMS5003;71262;-25.924;28.194;2023-08-21T13:47:22;4;4;
55485;PMS5003;71262;-25.924;28.194;2023-08-21T13:49:48;3;2;
55485;PMS5003;71262;-25.924;28.194;2023-08-21T13:52:12;3;3;
55485;PMS5003;71262;-25.924;28.194;2023-08-21T13:54:37;3;3;
55485;PMS5003;71262;-25.924;28.194;2023-08-21T13:57:02;4;4;
55485;PMS5003;71262;-25.924;28.194;2023-08-21T13:59:27;5;3;
55485;PMS5003;71262;-25.924;28.194;2023-08-21T14:01:53;3;3;
55485;PMS5003;71262;-25.924;28.194;2023-08-21T14:04:18;3;3;
55485;PMS5003;71262;-25.924;28.194;2023-08-21T14:06:43;4;4;
55485;PMS5003;71262;-25.924;28.194;2023-08-21T14:09:08;4;3;
55485;PMS5003;71262;-25.924;28.194;2023-08-21T14:11:34;2;2;
55485;PMS5003;71262;-25.924;28.194;2023-08-21T14:13:58;6;5;
55485;PMS5003;71262;-25.924;28.194;2023-08-21T14:16:23;4;3;
55485;PMS5003;71262;-25.924;28.194;2023-08-21T14:18:48;4;3;
55485;PMS5003;71262;-25.924;28.194;2023-08-21T14:21:13;4;4;
55485;PMS5003;71262;-25.924;28.194;2023-08-21T14:23:38;4;4;
55485;PMS5003;71262;-25.924;28.194;2023-08-21T14:26:03;5;4;
55485;PMS5003;71262;-25.924;28.194;2023-08-21T14:28:28;3;3;
55485;PMS5003;71262;-25.924;28.194;2023-08-21T14:30:53;2;2;
55485;PMS5003;71262;-25.924;28.194;2023-08-21T14:33:18;2;2;
55485;PMS5003;71262;-25.924;28.194;2023-08-21T14:35:43;4;4;
55485;PMS5003;71262;-25.924;28.194;2023-08-21T14:38:09;4;3;
55485;PMS5003;71262;-25.924;28.194;2023-08-21T14:40:33;3;3;
55485;PMS5003;71262;-25.924;28.194;2023-08-21T14:42:59;4;4;
55485;PMS5003;71262;-25.924;28.194;2023-08-21T14:45:24;3;3;
55485;PMS5003;71262;-25.924;28.194;2023-08-21T14:47:49;2;2;
55485;PMS5003;71262;-25.924;28.194;2023-08-21T14:50:14;2;2;
55485;PMS5003;71262;-25.924;28.194;2023-08-21T14:52:39;3;3;
55485;PMS5003;71262;-25.924;28.194;2023-08-21T14:55:04;2;2;
55485;PMS5003;71262;-25.924;28.194;2023-08-21T14:57:29;4;4;
55485;PMS5003;71262;-25.924;28.194;2023-08-21T14:59:55;4;4;
55485;PMS5003;71262;-25.924;28.194;2023-08-21T15:02:19;3;3;
55485;PMS5003;71262;-25.924;28.194;2023-08-21T15:04:44;3;3;
55485;PMS5003;71262;-25.924;28.194;2023-08-21T15:07:09;3;3;
55485;PMS5003;71262;-25.924;28.194;2023-08-21T15:09:34;5;4;
55485;PMS5003;71262;-25.924;28.194;2023-08-21T15:12:00;2;2;
55485;PMS5003;71262;-25.924;28.194;2023-08-21T15:14:24;2;2;
55485;PMS5003;71262;-25.924;28.194;2023-08-21T15:16:50;5;4;
55485;PMS5003;71262;-25.924;28.194;2023-08-21T15:19:15;2;1;
55485;PMS5003;71262;-25.924;28.194;2023-08-21T15:21:40;2;2;
55485;PMS5003;71262;-25.924;28.194;2023-08-21T15:24:05;4;3;
55485;PMS5003;71262;-25.924;28.194;2023-08-21T15:26:30;4;4;
55485;PMS5003;71262;-25.924;28.194;2023-08-21T15:28:55;3;3;
55485;PMS5003;71262;-25.924;28.194;2023-08-21T15:31:20;3;3;
55485;PMS5003;71262;-25.924;28.194;2023-08-21T15:33:45;3;3;
55485;PMS5003;71262;-25.924;28.194;2023-08-21T15:36:10;3;3;
55485;PMS5003;71262;-25.924;28.194;2023-08-21T15:38:35;4;4;
55485;PMS5003;71262;-25.924;28.194;2023-08-21T15:41:00;9;8;
55485;PMS5003;71262;-25.924;28.194;2023-08-21T15:43:25;7;7;
55485;PMS5003;71262;-25.924;28.194;2023-08-21T15:45:51;6;6;
55485;PMS5003;71262;-25.924;28.194;2023-08-21T15:48:16;5;5;
55485;PMS5003;71262;-25.924;28.194;2023-08-21T15:50:41;5;4;
55485;PMS5003;71262;-25.924;28.194;2023-08-21T15:53:06;5;4;
55485;PMS5003;71262;-25.924;28.194;2023-08-21T15:55:31;3;3;
55485;PMS5003;71262;-25.924;28.194;2023-08-21T15:57:56;2;2;
55485;PMS5003;71262;-25.924;28.194;2023-08-21T16:00:21;3;3;
55485;PMS5003;71262;-25.924;28.194;2023-08-21T16:02:46;2;2;